KPTS/PTS METAR and TAF weather

Enter ICAO airport designator
Station Type Date Time Source
KPTS METAR 2022/12/05 13:55 UTC NOAA

KPTS 051355Z AUTO 19005KT 1/4SM OVC003 05/05 A2983 RMK AO2 T00510050 PWINO


Station Type Date Time Source
KPTS Decoded METAR 2022/12/05 13:55 UTC NOAA

Station name not available
Dec 05, 2022 - 08:55 AM EST / 2022.12.05 1355 UTC
Wind: from the S (190 degrees) at 6 MPH (5 KT):0
Visibility: 1/4 mile(s):0
Sky conditions: overcast
Temperature: 41.2 F (5.1 C)
Dew Point: 41.0 F (5.0 C)
Relative Humidity: 99%
Pressure (altimeter): 29.83 in. Hg (1010 hPa)
ob: KPTS 051355Z AUTO 19005KT 1/4SM OVC003 05/05 A2983 RMK AO2 T00510050 PWINO
cycle: 14

Station Type Date Time Source
KPTS TAF UTC NOAA

Error!

Example: see airport list